»·PEaware :: DAL9977 KLAS-KLAX

DAL9977 :: KLAS-KLAX

FLIGHT INFORMATION

Flight Status: Arrived
Operator:
Delta Air Lines
More flights by this operator :: More flights under this callsign
Pilot: Diego M. (28112)
Aircraft: AIRBUS A319
(A319)
More flights by this aircraft type
Origin: KLAS McCarran Intl
United States
Destination: KLAX Los Angeles Intl
United States
More flights between these airports :: More routes between these airports
Route: BOACH8 RIKII SHTNR ANJLL4
File this flight plan on PilotEdge
Remarks:
Altitude:
(Current/Filed)
280ft
Speed:
(Current/Filed)
440kts
Departed: 31-May-20 11:49 AM
Arrived: 31-May-20 12:34 PM
Distance/Time
Traveled:
205nm/0:45
Distance/Time
To Go:
Arrived

Flight Plot

Page will automatically refresh every two minutes.

Flight plan parsing failed; only flown route is shown


Map Options




Map Legend


Flown Route
Filed Route
Departure Airport
Arrival Airport
Navaid (VOR, NDB)
Fix

Horizontal Profiles

Position Reports

Time Latitude Longitude Heading Altitude Ground
Speed
31-May-20 10:56 36.080231 -115.140587 91 2079ft 0kts
31-May-20 10:57 36.080231 -115.140587 91 2079ft 0kts
31-May-20 10:58 36.080231 -115.140587 91 2079ft 0kts
31-May-20 10:59 36.080231 -115.140587 91 2079ft 0kts
31-May-20 11:00 36.080231 -115.140587 91 2079ft 0kts
31-May-20 11:01 36.080231 -115.140587 91 2079ft 0kts
31-May-20 11:02 36.080231 -115.140587 91 2079ft 0kts
31-May-20 11:03 36.080231 -115.140587 91 2079ft 0kts
31-May-20 11:04 36.080231 -115.140587 91 2079ft 0kts
31-May-20 11:05 36.080231 -115.140587 91 2079ft 0kts
31-May-20 11:06 36.080231 -115.140587 91 2079ft 0kts
31-May-20 11:07 36.080231 -115.140587 91 2079ft 0kts
31-May-20 11:08 36.080231 -115.140587 91 2079ft 0kts
31-May-20 11:09 36.080231 -115.140587 91 2079ft 0kts
31-May-20 11:10 36.080231 -115.140587 91 2079ft 0kts
31-May-20 11:11 36.080231 -115.140587 91 2079ft 0kts
31-May-20 11:12 36.080231 -115.140587 91 2079ft 0kts
31-May-20 11:13 36.080231 -115.140587 91 2079ft 0kts
31-May-20 11:14 36.080231 -115.140587 91 2079ft 0kts
31-May-20 11:15 36.080231 -115.140587 91 2079ft 0kts
31-May-20 11:16 36.080231 -115.140587 91 2079ft 0kts
31-May-20 11:17 36.080231 -115.140587 91 2079ft 0kts
31-May-20 11:18 36.080231 -115.140587 91 2079ft 0kts
31-May-20 11:19 36.080231 -115.140587 91 2079ft 0kts
31-May-20 11:20 36.080231 -115.140587 91 2079ft 0kts
31-May-20 11:21 36.080231 -115.140587 91 2079ft 0kts
31-May-20 11:22 36.080231 -115.140587 91 2079ft 0kts
31-May-20 11:23 36.080231 -115.140587 91 2079ft 0kts
31-May-20 11:24 36.080231 -115.140587 91 2079ft 0kts
31-May-20 11:25 36.080231 -115.140587 91 2079ft 0kts
31-May-20 11:26 36.080231 -115.140587 91 2079ft 0kts
31-May-20 11:27 36.080231 -115.140587 91 2079ft 0kts
31-May-20 11:28 36.080231 -115.140587 91 2079ft 0kts
31-May-20 11:29 36.080231 -115.140587 91 2079ft 0kts
31-May-20 11:30 36.080231 -115.140587 91 2079ft 0kts
31-May-20 11:31 36.080231 -115.140587 91 2079ft 0kts
31-May-20 11:32 36.080231 -115.140587 91 2079ft 0kts
31-May-20 11:33 36.080231 -115.140587 91 2079ft 0kts
31-May-20 11:34 36.080231 -115.140587 91 2079ft 0kts
31-May-20 11:35 36.080239 -115.140889 72 2080ft 1kts
31-May-20 11:36 36.080466 -115.141527 152 2081ft 2kts
31-May-20 11:37 36.080727 -115.141597 180 2080ft 0kts
31-May-20 11:38 36.080727 -115.141597 180 2080ft 0kts
31-May-20 11:39 36.080727 -115.141597 180 2080ft 0kts
31-May-20 11:40 36.080691 -115.141598 180 2080ft 0kts
31-May-20 11:41 36.080432 -115.141600 180 2081ft 1kts
31-May-20 11:42 36.078286 -115.141250 117 2086ft 15kts
31-May-20 11:43 36.078267 -115.133566 89 2062ft 24kts
31-May-20 11:44 36.078303 -115.125545 90 2045ft 24kts
31-May-20 11:45 36.077549 -115.121528 133 2039ft 0kts
31-May-20 11:46 36.077549 -115.121528 133 2039ft 0kts
31-May-20 11:47 36.076658 -115.121315 200 2040ft 9kts
31-May-20 11:48 36.076439 -115.146987 270 2136ft 181kts
31-May-20 11:49 36.076757 -115.211043 270 4686ft 209kts
31-May-20 11:50 36.041036 -115.270584 197 6786ft 278kts
31-May-20 11:51 35.966670 -115.301530 189 7848ft 288kts
31-May-20 11:52 35.887136 -115.311754 187 11127ft 308kts
31-May-20 11:53 35.799974 -115.308702 176 14379ft 321kts
31-May-20 11:54 35.709667 -115.298436 176 17179ft 334kts
31-May-20 11:55 35.616084 -115.297417 183 18989ft 341kts
31-May-20 11:56 35.521306 -115.302522 190 19003ft 340kts
31-May-20 11:57 35.436331 -115.352601 210 20403ft 347kts
31-May-20 11:58 35.352937 -115.413050 210 22557ft 356kts
31-May-20 11:59 35.266802 -115.475470 210 24452ft 366kts
31-May-20 12:00 35.179217 -115.538792 210 26148ft 375kts
31-May-20 12:01 35.095059 -115.616358 225 27637ft 387kts
31-May-20 12:02 35.021766 -115.710323 224 28045ft 390kts
31-May-20 12:03 34.947152 -115.805527 224 28064ft 389kts
31-May-20 12:04 34.872580 -115.900086 224 28067ft 388kts
31-May-20 12:05 34.797650 -115.994762 224 28076ft 388kts
31-May-20 12:06 34.724243 -116.088088 225 28076ft 388kts
31-May-20 12:07 34.649833 -116.182783 225 28076ft 388kts
31-May-20 12:08 34.575139 -116.277536 225 28073ft 388kts
31-May-20 12:09 34.500633 -116.371785 225 28076ft 388kts
31-May-20 12:10 34.427357 -116.466988 230 27763ft 388kts
31-May-20 12:11 34.374804 -116.580076 241 26131ft 382kts
31-May-20 12:12 34.328283 -116.693118 241 24341ft 369kts
31-May-20 12:13 34.284301 -116.802908 241 22626ft 357kts
31-May-20 12:14 34.241613 -116.908638 241 20997ft 345kts
31-May-20 12:15 34.203379 -117.013176 249 19366ft 337kts
31-May-20 12:16 34.174693 -117.119046 250 17747ft 329kts
31-May-20 12:17 34.146340 -117.222858 250 16172ft 322kts
31-May-20 12:18 34.118350 -117.324290 250 14641ft 315kts
31-May-20 12:19 34.092050 -117.424177 252 13140ft 310kts
31-May-20 12:20 34.065979 -117.519725 246 11786ft 299kts
31-May-20 12:21 34.033173 -117.610778 246 10389ft 292kts
31-May-20 12:22 34.006099 -117.696426 258 9633ft 272kts
31-May-20 12:23 33.997245 -117.785514 262 8484ft 263kts
31-May-20 12:24 33.989075 -117.869402 262 7317ft 240kts
31-May-20 12:26 33.981501 -117.946710 262 6373ft 223kts
31-May-20 12:27 33.974257 -118.019731 262 5571ft 219kts
31-May-20 12:28 33.967055 -118.092213 262 4710ft 216kts
31-May-20 12:29 33.959888 -118.164365 262 3505ft 217kts
31-May-20 12:30 33.953006 -118.232665 262 2563ft 190kts
31-May-20 12:31 33.946842 -118.291470 261 1621ft 162kts
31-May-20 12:32 33.941981 -118.338208 261 869ft 132kts
31-May-20 12:33 33.937449 -118.381962 261 162ft 130kts
31-May-20 12:34 33.936115 -118.403240 289 123ft 0kts
31-May-20 12:35 33.936237 -118.403733 280 124ft 3kts
31-May-20 12:36 33.935934 -118.407812 273 130ft 19kts
31-May-20 12:37 33.937757 -118.409105 354 132ft 0kts
31-May-20 12:38 33.938064 -118.409146 353 132ft 4kts
31-May-20 12:39 33.938916 -118.406507 82 130ft 15kts
31-May-20 12:40 33.939741 -118.404130 356 126ft 2kts

Navigation Log

Ident Type
Flight plan parsing failed, navigation log unavailable